< < Back
Terminal Aerodrome Forecast


Current Version              Previous Versions:   1  2  3  4  5  6  7  8  9  

Terminal Aerodrome Forecast

871
FTUS42 KFFC 221700
TAFAHN
TAF
KAHN 221734Z 2218/2318 33008G15KT P6SM SCT050
     FM222100 33008KT P6SM SCT050
     FM230100 33004KT P6SM FEW070 SCT250
     FM231500 34006KT P6SM SCT040=



Latest METAR

370
SAUS70 KWBC 222100
MTRAHN
METAR KAHN 222051Z 33004KT 10SM CLR 35/20 A3002 RMK AO2 SLP156 T03500200
56018


USA.gov is the U.S. government's official web portal to all federal, state and local government web resources and services.